Flight Track Log - Related Links

Times and Time Zones

All times are in EST time to prevent confusion due to time zone crossing. See the UAL33 flight status page for this flight to view local times or setup timezone preferences in your user account.

Time Position Orientation Groundspeed Altitude Reporting Facility
EST Latitude Longitude Course Direction KTS MPH feet Rate Location/Type
04:54AM 36.0145 140.8472 84° East  Level Estimated
04:55AM 35.9647 141.0217 109° East  Level FlightAware Approximate
04:56AM 35.9146 141.1960 110° East  Level FlightAware Approximate
04:57AM 35.9971 141.3503 90° East  Level Estimated
04:58AM 36.0794 141.5050 86° East  Level Estimated
04:59AM 36.0116 141.6701 117° Southeast  Level FlightAware Approximate
05:00AM 36.0936 141.8251 90° East  Level Estimated
05:01AM 36.1754 141.9804 90° East  Level Estimated
05:02AM 36.2570 142.1360 90° East  Level Estimated
05:03AM 36.3384 142.2919 83° East  Level Estimated
05:04AM 36.4196 142.4482 90° East  Level Estimated
05:05AM 36.3336 142.6005 125° Southeast  Level FlightAware Approximate
05:06AM 36.2475 142.7525 125° Southeast  Level FlightAware Approximate
05:07AM 36.3283 142.9089 87° East  Level Estimated
05:08AM 36.2511 143.0681 121° Southeast  Level FlightAware Approximate
05:09AM 36.3315 143.2249 78° East  Level Estimated
05:10AM 36.3181 143.4100 95° East  Level FlightAware Approximate
05:11AM 36.3044 143.5950 95° East  Level FlightAware Approximate
05:12AM 36.2905 143.7800 95° East  Level FlightAware Approximate
05:13AM 36.2763 143.9649 95° East  Level FlightAware Approximate
05:14AM 36.2618 144.1497 96° East  Level FlightAware Approximate
05:15AM 36.2470 144.3345 96° East  Level FlightAware Approximate
05:16AM 36.2319 144.5192 96° East  Level FlightAware Approximate
05:17AM 36.2165 144.7038 96° East  Level FlightAware Approximate
05:18AM 36.2952 144.8618 73° East  Level Estimated
05:19AM 36.3736 145.0202 68° East  Level Estimated
05:20AM 36.3783 145.2061 88° East  Level FlightAware Approximate
05:21AM 36.3828 145.3920 88° East  Level FlightAware Approximate
05:22AM 36.3869 145.5779 88° East  Level FlightAware Approximate
05:23AM 36.4645 145.7370 74° East  Level Estimated
05:24AM 36.4944 145.9181 78° East  Level FlightAware Approximate
05:25AM 36.5240 146.0994 78° East  Level FlightAware Approximate
05:26AM 36.5533 146.2808 79° East  Level FlightAware Approximate
05:27AM 36.5823 146.4623 79° East  Level FlightAware Approximate
05:28AM 36.6111 146.6440 79° East  Level FlightAware Approximate
05:29AM 36.6396 146.8258 79° East  Level FlightAware Approximate
05:30AM 36.6678 147.0077 79° East  Level FlightAware Approximate
05:31AM 36.6958 147.1898 79° East  Level FlightAware Approximate
05:32AM 36.7234 147.3720 79° East  Level FlightAware Approximate
05:33AM 36.7508 147.5543 79° East  Level FlightAware Approximate
05:34AM 36.7779 147.7368 79° East  Level FlightAware Approximate
05:35AM 36.8524 147.8975 84° East  Level Estimated
05:36AM 36.8669 148.0824 84° East  Level FlightAware Approximate
05:37AM 36.8811 148.2674 84° East  Level FlightAware Approximate
05:38AM 36.8950 148.4524 85° East  Level FlightAware Approximate
05:39AM 36.9087 148.6375 85° East  Level FlightAware Approximate
05:40AM 36.9220 148.8227 85° East  Level FlightAware Approximate
05:41AM 36.9351 149.0080 85° East  Level FlightAware Approximate
05:42AM 36.9478 149.1933 85° East  Level FlightAware Approximate
05:43AM 37.0207 149.3555 94° East  Level Estimated
05:44AM 37.0112 149.5413 94° East  Level FlightAware Approximate
05:45AM 37.0014 149.7271 94° East  Level FlightAware Approximate
05:46AM 36.9913 149.9128 94° East  Level FlightAware Approximate
05:47AM 36.9809 150.0984 94° East  Level FlightAware Approximate
05:48AM 36.9703 150.2841 94° East  Level FlightAware Approximate
05:49AM 36.9593 150.4696 94° East  Level FlightAware Approximate
05:50AM 36.9481 150.6551 94° East  Level FlightAware Approximate
05:51AM 36.9365 150.8406 94° East  Level FlightAware Approximate
05:52AM 36.9247 151.0260 95° East  Level FlightAware Approximate
05:53AM 36.9126 151.2113 95° East  Level FlightAware Approximate
05:54AM 36.9002 151.3965 95° East  Level FlightAware Approximate
05:55AM 36.8875 151.5818 95° East  Level FlightAware Approximate
05:56AM 36.8746 151.7669 95° East  Level FlightAware Approximate
05:57AM 36.8613 151.9520 95° East  Level FlightAware Approximate
05:58AM 36.8478 152.1370 95° East  Level FlightAware Approximate
05:59AM 36.8339 152.3220 95° East  Level FlightAware Approximate
06:00AM 36.8198 152.5069 95° East  Level FlightAware Approximate
06:01AM 36.8054 152.6917 96° East  Level FlightAware Approximate
06:02AM 36.7907 152.8764 96° East  Level FlightAware Approximate
06:03AM 36.7757 153.0611 96° East  Level FlightAware Approximate
06:04AM 36.7605 153.2457 96° East  Level FlightAware Approximate
06:05AM 36.7449 153.4302 96° East  Level FlightAware Approximate
06:06AM 36.7291 153.6147 96° East  Level FlightAware Approximate
06:07AM 36.7130 153.7991 96° East  Level FlightAware Approximate
06:08AM 36.6966 153.9834 96° East  Level FlightAware Approximate
06:09AM 36.6799 154.1676 96° East  Level FlightAware Approximate
06:10AM 36.6629 154.3517 96° East  Level FlightAware Approximate
06:11AM 36.6457 154.5358 97° East  Level FlightAware Approximate
06:12AM 36.6282 154.7197 97° East  Level FlightAware Approximate
06:13AM 36.6103 154.9036 97° East  Level FlightAware Approximate
06:14AM 36.5922 155.0874 97° East  Level FlightAware Approximate
06:15AM 36.5738 155.2711 97° East  Level FlightAware Approximate
06:16AM 36.5552 155.4548 97° East  Level FlightAware Approximate
06:17AM 36.5363 155.6383 97° East  Level FlightAware Approximate
06:18AM 36.5170 155.8218 97° East  Level FlightAware Approximate
06:19AM 36.4975 156.0051 97° East  Level FlightAware Approximate
06:20AM 36.4777 156.1884 98° East  Level FlightAware Approximate
06:21AM 36.4577 156.3716 98° East  Level FlightAware Approximate
06:22AM 36.4373 156.5546 98° East  Level FlightAware Approximate
06:23AM 36.4167 156.7376 98° East  Level FlightAware Approximate
06:24AM 36.3958 156.9205 98° East  Level FlightAware Approximate
06:25AM 36.3746 157.1033 98° East  Level FlightAware Approximate
06:26AM 36.3531 157.2859 98° East  Level FlightAware Approximate
06:27AM 36.3314 157.4685 98° East  Level FlightAware Approximate
06:28AM 36.3094 157.6510 98° East  Level FlightAware Approximate
06:29AM 36.2871 157.8334 99° East  Level FlightAware Approximate
06:30AM 36.2645 158.0157 99° East  Level FlightAware Approximate
06:31AM 36.2417 158.1978 99° East  Level FlightAware Approximate
06:32AM 36.2186 158.3799 99° East  Level FlightAware Approximate
06:33AM 36.1952 158.5618 99° East  Level FlightAware Approximate
06:34AM 36.1715 158.7437 99° East  Level FlightAware Approximate
06:35AM 36.1475 158.9254 99° East  Level FlightAware Approximate
06:36AM 36.1233 159.1070 99° East  Level FlightAware Approximate
06:37AM 36.0988 159.2885 99° East  Level FlightAware Approximate
06:38AM 36.1618 159.4552 87° East  Level Estimated
06:39AM 36.1639 159.6393 89° East  Level FlightAware Approximate
06:40AM 36.1656 159.8234 89° East  Level FlightAware Approximate
06:41AM 36.1671 160.0076 89° East  Level FlightAware Approximate
06:42AM 36.1683 160.1917 89° East  Level FlightAware Approximate
06:43AM 36.1692 160.3759 90° East  Level FlightAware Approximate
06:44AM 36.1698 160.5600 90° East  Level FlightAware Approximate
06:45AM 36.1702 160.7442 90° East  Level FlightAware Approximate
06:46AM 36.1702 160.9283 90° East  Level FlightAware Approximate
06:47AM 36.1700 161.1125 90° East  Level FlightAware Approximate
06:48AM 36.1695 161.2966 90° East  Level FlightAware Approximate
06:49AM 36.1687 161.4808 90° East  Level FlightAware Approximate
06:50AM 36.1676 161.6649 90° East  Level FlightAware Approximate
06:51AM 36.1663 161.8491 90° East  Level FlightAware Approximate
06:52AM 36.1647 162.0309 91° East  Level FlightAware Approximate
06:53AM 36.1628 162.2128 91° East  Level FlightAware Approximate
06:54AM 36.1606 162.3946 91° East  Level FlightAware Approximate
06:55AM 36.1582 162.5765 91° East  Level FlightAware Approximate
06:56AM 36.1555 162.7583 91° East  Level FlightAware Approximate
06:57AM 36.1525 162.9401 91° East  Level FlightAware Approximate
06:58AM 36.1492 163.1219 91° East  Level FlightAware Approximate
06:59AM 36.1457 163.3036 91° East  Level FlightAware Approximate
07:00AM 36.1419 163.4854 91° East  Level FlightAware Approximate
07:01AM 36.1378 163.6671 92° East  Level FlightAware Approximate
07:02AM 36.1334 163.8489 92° East  Level FlightAware Approximate
07:03AM 36.1288 164.0306 92° East  Level FlightAware Approximate
07:04AM 36.1239 164.2122 92° East  Level FlightAware Approximate
07:05AM 36.1812 164.3797 90° East  Level Estimated
07:06AM 36.1795 164.5616 91° East  Level FlightAware Approximate
07:06AM 36.1000 166.4833 91° East 553 636 40,000  Level Oakland Oceanic (ODAPS)
07:20AM 36.0333 169.0833 92° East 545 627 40,000  Level Oakland Oceanic (ODAPS)
07:25AM 36.0000 170.0000 80° East 549 632 40,000  Level Oakland Oceanic (ODAPS)
07:34AM 36.2167 171.6333 81° East 548 631 40,000  Level Oakland Oceanic (ODAPS)
07:47AM 36.5167 174.2000 82° East 547 629 40,000  Level Oakland Oceanic (ODAPS)
07:56AM 36.6833 175.8167 83° East 535 616 40,000  Level Oakland Oceanic (ODAPS)
08:01AM 36.7667 176.7000 84° East 551 634 40,000  Level Oakland Oceanic (ODAPS)
08:06AM 36.8333 177.5333 84° East 542 624 40,000  Level Oakland Oceanic (ODAPS)
08:15AM 36.9500 179.3000 85° East 564 649 40,000  Level Oakland Oceanic (ODAPS)
08:19AM 37.0000 180.0000 66° East 582 670 40,000  Level Oakland Oceanic (ODAPS)
08:29AM 37.6500 -178.1000 67° East 582 670 40,000  Level Oakland Oceanic (ODAPS)
08:43AM 38.4833 -175.4833 69° East 581 669 40,000  Level Oakland Oceanic (ODAPS)
08:57AM 39.2667 -172.8333 71° East 575 662 40,000  Level Oakland Oceanic (ODAPS)
09:11AM 39.9833 -170.0667 72° East 592 681 40,000  Level Oakland Oceanic (ODAPS)
09:11AM 40.0000 -170.0000 72° East 577 664 40,000  Level Oakland Oceanic (ODAPS)
09:25AM 40.6500 -167.2500 74° East 578 665 40,000  Level Oakland Oceanic (ODAPS)
09:38AM 41.2500 -164.3833 76° East 589 678 40,000  Level Oakland Oceanic (ODAPS)
09:52AM 41.7833 -161.4167 78° East 597 687 40,000  Level Oakland Oceanic (ODAPS)
09:59AM 42.0000 -160.0000 79° East 581 669 40,000  Level Oakland Oceanic (ODAPS)
10:06AM 42.2167 -158.4167 80° East 571 657 40,000 47 Level Oakland Oceanic (ODAPS)
10:20AM 42.5500 -155.5833 82° East 538 619 41,000 36 Climbing Oakland Oceanic (ODAPS)
10:34AM 42.8167 -152.8333 84° East 535 616 41,000  Level Oakland Oceanic (ODAPS)
10:48AM 43.0000 -150.0500 90° East 555 639 41,000  Level Oakland Oceanic (ODAPS)
10:48AM 43.0000 -150.0000 87° East 543 625 41,000  Level Oakland Oceanic (ODAPS)
11:02AM 43.0833 -147.2333 88° East 539 620 41,000  Level Oakland Oceanic (ODAPS)
11:15AM 43.1000 -144.4000 90° East 537 618 41,000  Level Oakland Oceanic (ODAPS)
11:29AM 43.0500 -141.5667 92° East 538 619 41,000  Level Oakland Oceanic (ODAPS)
11:37AM 43.0000 -140.0000 102° East 530 610 41,000  Level Oakland Oceanic (ODAPS)
11:43AM 42.8167 -138.7833 103° East 522 601 41,000  Level Oakland Oceanic (ODAPS)
11:57AM 42.3500 -136.1333 104° East 517 595 41,000  Level Oakland Oceanic (ODAPS)
12:11PM 41.8333 -133.6167 106° East 503 579 41,000  Level Oakland Oceanic (ODAPS)
12:25PM 41.2833 -131.1833 107° East 500 575 41,000  Level Oakland Oceanic (ODAPS)
12:32PM 41.0000 -130.0000 106° East 499 574 41,000  Level Oakland Oceanic (ODAPS)
12:39PM 40.7167 -128.7667 107° East 497 572 41,000  Level Oakland Oceanic (ODAPS)
12:46PM 40.4333 -127.5500 107° East 503 579 41,000  Level Oakland Oceanic (ODAPS)
12:47PM 40.3855 -127.3516 108° East 497 572 41,000 -68 Level FlightAware Transoceanic
12:47PM 40.3542 -127.3272 107° East 502 578 40,900  Descending Oakland Center
12:48PM 40.3429 -127.1757 108° East 497 572 41,000  Climbing FlightAware Transoceanic
12:48PM 40.3186 -127.1136 102° East 503 579 40,900  Descending Oakland Center
12:49PM 40.3000 -127.0000 112° Southeast 497 572 41,000 97 Climbing FlightAware Transoceanic
12:49PM 40.2836 -126.9394 105° East 499 574 41,000  Level Oakland Center
12:50PM 40.2482 -126.8349 112° Southeast 497 572 41,000 -98 Level FlightAware Transoceanic
12:50PM 40.2106 -126.7900 123° Southeast 486 559 40,900  Descending Oakland Center
12:51PM 40.1961 -126.6700 113° Southeast 497 572 41,000 98 Climbing FlightAware Transoceanic
12:51PM 40.1300 -126.6511 127° Southeast 481 554 41,000  Level Oakland Center
12:52PM 40.0444 -126.5131 129° Southeast 487 560 41,000  Level Oakland Center
12:53PM 39.9625 -126.3761 128° Southeast 483 556 41,000  Level Oakland Center
12:54PM 39.8781 -126.2378 128° Southeast 486 559 41,000  Level Oakland Center
12:55PM 39.7931 -126.1003 129° Southeast 489 563 41,000  Level Oakland Center
12:56PM 39.7069 -125.9606 129° Southeast 495 570 41,000  Level Oakland Center
12:57PM 39.6050 -125.7958 129° Southeast 491 565 41,000 -49 Level Oakland Center
12:58PM 39.5200 -125.6594 129° Southeast 490 564 40,900  Descending Oakland Center
12:59PM 39.4342 -125.5231 129° Southeast 490 564 41,000  Climbing Oakland Center
01:00PM 39.3469 -125.3825 129° Southeast 485 558 40,900 -49 Descending Oakland Center
01:01PM 39.2608 -125.2464 129° Southeast 488 562 40,900 49 Level Oakland Center
01:02PM 39.1761 -125.1122 129° Southeast 484 557 41,000 49 Climbing Oakland Center
01:03PM 39.0947 -124.9828 129° Southeast 489 563 41,000  Level Oakland Center
01:04PM 39.0097 -124.8494 129° Southeast 486 559 41,000  Level Oakland Center
01:05PM 38.9064 -124.6894 130° Southeast 485 558 41,000 -49 Level Oakland Center
01:06PM 38.8219 -124.5561 129° Southeast 484 557 40,900  Descending Oakland Center
01:08PM 38.7356 -124.4242 130° Southeast 484 557 41,000 49 Climbing Oakland Center
01:09PM 38.6503 -124.2936 130° Southeast 481 554 41,000  Level Oakland Center
01:10PM 38.5583 -124.1531 130° Southeast 483 556 41,000  Level Oakland Center
01:11PM 38.4722 -124.0217 130° Southeast 483 556 41,000 -49 Level Oakland Center
01:12PM 38.3869 -123.8900 130° Southeast 483 556 40,900 -49 Descending Oakland Center
01:13PM 38.3006 -123.7606 130° Southeast 482 555 40,900 49 Level Oakland Center
01:14PM 38.2142 -123.6317 130° Southeast 480 552 41,000  Climbing Oakland Center
01:15PM 38.1283 -123.5014 130° Southeast 482 555 40,900 -49 Descending Oakland Center
01:16PM 38.0406 -123.3725 131° Southeast 483 556 40,900 49 Level Oakland Center
01:17PM 37.9369 -123.2178 130° Southeast 482 555 41,000  Climbing Oakland Center
01:18PM 37.8514 -123.0903 130° Southeast 477 549 40,900  Descending Oakland Center
01:24PM 37.3074 -122.2940 130° Southeast 493 567 41,000 15 Climbing FlightAware ADS-B
01:25PM 37.2339 -122.1880 131° Southeast 493 567 41,000  Level FlightAware ADS-B
01:25PM 37.1884 -122.1230 131° Southeast 490 564 41,000  Level FlightAware ADS-B
01:26PM 37.1286 -122.0370 131° Southeast 490 564 41,000  Level FlightAware ADS-B
01:26PM 37.0830 -121.9720 131° Southeast 490 564 41,000  Level FlightAware ADS-B
01:27PM 36.9884 -121.8360 131° Southeast 490 564 41,000  Level FlightAware ADS-B
01:28PM 36.9234 -121.7440 131° Southeast 492 566 41,000  Level FlightAware ADS-B
01:29PM 36.8724 -121.6720 132° Southeast 492 566 41,000  Level FlightAware ADS-B
01:29PM 36.8163 -121.5920 131° Southeast 491 565 41,000  Level FlightAware ADS-B
01:31PM 36.6965 -121.4230 131° Southeast 490 564 41,000  Level FlightAware ADS-B
01:31PM 36.6512 -121.3600 132° Southeast 490 564 41,000  Level FlightAware ADS-B
01:32PM 36.5417 -121.2060 131° Southeast 490 564 41,000  Level FlightAware ADS-B
01:33PM 36.4833 -121.1303 131° Southeast 491 565 41,000  Level Oakland Center
01:34PM 36.3939 -121.0042 131° Southeast 488 562 41,000 -49 Level Oakland Center
01:35PM 36.3036 -120.8811 132° Southeast 485 558 40,900 -49 Descending Oakland Center
01:36PM 36.2139 -120.7544 131° Southeast 487 560 40,900 49 Level Oakland Center
01:37PM 36.1225 -120.6300 132° Southeast 489 563 41,000 49 Climbing Oakland Center
01:38PM 36.0139 -120.4786 132° Southeast 490 564 41,000  Level Oakland Center
01:39PM 35.9239 -120.3556 132° Southeast 484 557 41,000 -49 Level Oakland Center
01:40PM 35.8333 -120.2314 132° Southeast 483 556 40,900 -49 Descending Oakland Center
01:41PM 35.7422 -120.1081 132° Southeast 483 556 40,900 -49 Level Oakland Center
01:42PM 35.6519 -119.9867 132° Southeast 479 551 40,800 -836 Descending Oakland Center
01:43PM 35.5472 -119.8928 144° Southeast 465 535 39,200 -1,593 Descending Oakland Center
01:44PM 35.4614 -119.8175 144° Southeast 467 537 37,800 -1,421 Descending Los Angeles Center
01:45PM 35.3531 -119.7247 145° Southeast 471 542 36,500 -1,403 Descending Los Angeles Center
01:46PM 35.2469 -119.6331 145° Southeast 466 536 34,900 -1,984 Descending Los Angeles Center
01:47PM 35.1167 -119.5217 145° Southeast 474 545 32,400 -2,468 Descending Los Angeles Center
01:48PM 35.0094 -119.4292 145° Southeast 471 542 29,800 -2,400 Descending Los Angeles Center
01:49PM 34.9067 -119.3422 145° Southeast 454 522 27,400 -2,160 Descending Los Angeles Center
01:50PM 34.8072 -119.2586 145° Southeast 437 503 25,300 -2,032 Descending Los Angeles Center
01:51PM 34.7117 -119.1769 145° Southeast 423 487 23,200 -2,177 Descending Los Angeles Center
01:52PM 34.6000 -119.0839 146° Southeast 423 487 20,800 -2,177 Descending Los Angeles Center
01:53PM 34.5072 -119.0061 145° Southeast 406 467 18,700 -1,984 Descending Los Angeles Center
01:55PM 34.4153 -118.9292 145° Southeast 400 460 16,700 -2,032 Descending Los Angeles Center
01:56PM 34.3194 -118.8669 152° Southeast 392 451 14,500 -1,439 Descending Los Angeles Center
02:01PM 34.0205 -118.5659 152° Southeast 228 262 7,200 -1,239 Descending FlightAware ADS-B
02:02PM 34.0165 -118.5229 96° East 227 261 6,900 -429 Descending FlightAware ADS-B
02:02PM 34.0141 -118.4979 97° East 226 260 6,800 -98 Descending FlightAware ADS-B
02:03PM 34.0108 -118.4504 95° East 228 262 6,800 -673 Level FlightAware ADS-B
02:04PM 34.0217 -118.3619 95° East 225 259 5,600 -1,292 Descending Los Angeles Center
02:05PM 34.0297 -118.2908 82° East 218 251 4,000 -1,403 Descending Los Angeles Center
02:06PM 33.9975 -118.2539 136° Southeast 203 234 2,700 -919 Descending Los Angeles Center
02:07PM 33.9611 -118.2875 217° Southwest 197 227 2,100 -768 Descending Los Angeles Center
02:08PM 33.9575 -118.3442 266° West 182 209 1,100 -816 Descending Los Angeles Center
02:09PM 33.9522 -118.3914 262° West 161 185 400 -677 Descending Los Angeles Center

Login

Don't have an account? Register now (free) for customized features, flight alerts, and more!